N719GF KASE-
Flight info
| Callsign | N719GF |
|---|---|
| Flight time | N/A |
| Altitude | |
| Route | /FFNW/ |
| Aircraft | EC45/L-DOV/C |
Departure
| Time | 2026-04-22 01:35 |
|---|---|
| Airport | Aspen-Pitkin County Airport (Sardy Field) (KASE) |
Arrival
| Time | N/A |
|---|---|
| Airport | - |
| Time | Latitude | Longitude | Altitude | Speed | Heading |
|---|---|---|---|---|---|
| 2026-04-22 01:27 | 39.22523 | -106.86821 | 7740 ft | 0 kts | 69° |
| 2026-04-22 01:29 | 39.22522 | -106.86830 | 7744 ft | 1 kts | 71° |
| 2026-04-22 01:29 | 39.22519 | -106.86829 | 7748 ft | 1 kts | 336° |
| 2026-04-22 01:29 | 39.22525 | -106.86822 | 7782 ft | 11 kts | 252° |
| 2026-04-22 01:29 | 39.22820 | -106.86973 | 7797 ft | 69 kts | 341° |
| 2026-04-22 01:30 | 39.23385 | -106.86981 | 7779 ft | 94 kts | 3° |
| 2026-04-22 01:30 | 39.24058 | -106.86944 | 7849 ft | 101 kts | 360° |
| 2026-04-22 01:30 | 39.24799 | -106.86946 | 7940 ft | 111 kts | 359° |
| 2026-04-22 01:30 | 39.25601 | -106.86979 | 7979 ft | 120 kts | 358° |
| 2026-04-22 01:31 | 39.26457 | -106.87045 | 7971 ft | 127 kts | 355° |
| 2026-04-22 01:31 | 39.27351 | -106.87150 | 7924 ft | 131 kts | 351° |
| 2026-04-22 01:31 | 39.28235 | -106.87396 | 7925 ft | 132 kts | 332° |
| 2026-04-22 01:31 | 39.28872 | -106.88184 | 7889 ft | 123 kts | 293° |
| 2026-04-22 01:32 | 39.29218 | -106.89221 | 7847 ft | 125 kts | 282° |
| 2026-04-22 01:32 | 39.29407 | -106.90291 | 7931 ft | 120 kts | 274° |
| 2026-04-22 01:32 | 39.29564 | -106.91348 | 7951 ft | 120 kts | 276° |
| 2026-04-22 01:32 | 39.29705 | -106.92398 | 7942 ft | 122 kts | 276° |
| 2026-04-22 01:33 | 39.30233 | -106.93186 | 8059 ft | 124 kts | 335° |
| 2026-04-22 01:33 | 39.31135 | -106.93466 | 7855 ft | 140 kts | 340° |
| 2026-04-22 01:33 | 39.32072 | -106.93929 | 7685 ft | 148 kts | 329° |
| 2026-04-22 01:33 | 39.32899 | -106.94678 | 7576 ft | 142 kts | 295° |
| 2026-04-22 01:34 | 39.33057 | -106.95904 | 7337 ft | 142 kts | 266° |
| 2026-04-22 01:34 | 39.33099 | -106.97133 | 7409 ft | 134 kts | 270° |
| 2026-04-22 01:34 | 39.33244 | -106.98292 | 7555 ft | 130 kts | 290° |
| 2026-04-22 01:34 | 39.33900 | -106.98979 | 8079 ft | 120 kts | 341° |
| 2026-04-22 01:35 | 39.34681 | -106.98954 | 8761 ft | 105 kts | 4° |
| 2026-04-22 01:35 | 39.35393 | -106.98872 | 9128 ft | 105 kts | 1° |
| 2026-04-22 01:35 | 39.36137 | -106.98791 | 9359 ft | 109 kts | 358° |
| 2026-04-22 01:35 | 39.36910 | -106.98714 | 9529 ft | 114 kts | 358° |
| 2026-04-22 01:36 | 39.37711 | -106.98643 | 9850 ft | 117 kts | 358° |
| 2026-04-22 01:36 | 39.38532 | -106.98583 | 10090 ft | 120 kts | 358° |
| 2026-04-22 01:36 | 39.39374 | -106.98532 | 10314 ft | 122 kts | 356° |
| 2026-04-22 01:36 | 39.40230 | -106.98493 | 10508 ft | 124 kts | 357° |
| 2026-04-22 01:37 | 39.41101 | -106.98466 | 10673 ft | 126 kts | 354° |
| 2026-04-22 01:37 | 39.41976 | -106.98454 | 10837 ft | 126 kts | 355° |
| 2026-04-22 01:37 | 39.42861 | -106.98459 | 10981 ft | 128 kts | 353° |
| 2026-04-22 01:37 | 39.43752 | -106.98479 | 11129 ft | 129 kts | 354° |
| 2026-04-22 01:38 | 39.44653 | -106.98518 | 11320 ft | 130 kts | 352° |
| 2026-04-22 01:38 | 39.45557 | -106.98584 | 11452 ft | 130 kts | 350° |
| 2026-04-22 01:38 | 39.46450 | -106.98694 | 11541 ft | 128 kts | 348° |
| 2026-04-22 01:38 | 39.47323 | -106.98848 | 11567 ft | 126 kts | 345° |
| 2026-04-22 01:39 | 39.48180 | -106.99048 | 11672 ft | 124 kts | 342° |
| 2026-04-22 01:39 | 39.49016 | -106.99293 | 11792 ft | 123 kts | 339° |
| 2026-04-22 01:39 | 39.49836 | -106.99580 | 11884 ft | 122 kts | 337° |
| 2026-04-22 01:39 | 39.50643 | -106.99909 | 11972 ft | 122 kts | 336° |
| 2026-04-22 01:40 | 39.51472 | -107.00236 | 11953 ft | 129 kts | 343° |
| 2026-04-22 01:40 | 39.52393 | -107.00114 | 11891 ft | 142 kts | 22° |
| 2026-04-22 01:40 | 39.53180 | -106.99333 | 11754 ft | 148 kts | 41° |
| 2026-04-22 01:40 | 39.53993 | -106.98431 | 11556 ft | 155 kts | 40° |
| 2026-04-22 01:41 | 39.54814 | -106.97490 | 11214 ft | 160 kts | 41° |
| 2026-04-22 01:41 | 39.55648 | -106.96503 | 10965 ft | 164 kts | 41° |
| 2026-04-22 01:41 | 39.56473 | -106.95500 | 10677 ft | 166 kts | 43° |
| 2026-04-22 01:41 | 39.57314 | -106.94455 | 10467 ft | 168 kts | 43° |
| 2026-04-22 01:42 | 39.58154 | -106.93387 | 10233 ft | 169 kts | 45° |
| 2026-04-22 01:42 | 39.58988 | -106.92303 | 9973 ft | 170 kts | 45° |
| 2026-04-22 01:42 | 39.59819 | -106.91211 | 9692 ft | 170 kts | 45° |
| 2026-04-22 01:42 | 39.60644 | -106.90114 | 9488 ft | 169 kts | 43° |
| 2026-04-22 01:43 | 39.61294 | -106.88871 | 9207 ft | 169 kts | 70° |
| 2026-04-22 01:43 | 39.61634 | -106.87417 | 8708 ft | 168 kts | 71° |
| 2026-04-22 01:43 | 39.62422 | -106.86610 | 8239 ft | 142 kts | 341° |
| 2026-04-22 01:43 | 39.63059 | -106.87377 | 7849 ft | 125 kts | 288° |
| 2026-04-22 01:44 | 39.63416 | -106.88367 | 7626 ft | 116 kts | 291° |
| 2026-04-22 01:44 | 39.63655 | -106.89204 | 7220 ft | 82 kts | 294° |
| 2026-04-22 01:44 | 39.63938 | -106.89629 | 6859 ft | 48 kts | 316° |
| 2026-04-22 01:44 | 39.64151 | -106.89828 | 6687 ft | 31 kts | 307° |
| 2026-04-22 01:45 | 39.64256 | -106.89984 | 6617 ft | 16 kts | 295° |
| 2026-04-22 01:45 | 39.64320 | -106.90063 | 6568 ft | 15 kts | 287° |
| 2026-04-22 01:45 | 39.64319 | -106.90197 | 6558 ft | 7 kts | 264° |
| 2026-04-22 01:45 | 39.64308 | -106.90297 | 6558 ft | 18 kts | 264° |
| 2026-04-22 01:46 | 39.64273 | -106.90568 | 6559 ft | 42 kts | 260° |
| 2026-04-22 01:46 | 39.64229 | -106.91023 | 6556 ft | 59 kts | 261° |
| 2026-04-22 01:46 | 39.64176 | -106.91499 | 6546 ft | 46 kts | 265° |
| 2026-04-22 01:46 | 39.64144 | -106.91802 | 6527 ft | 25 kts | 263° |
| 2026-04-22 01:47 | 39.64058 | -106.92002 | 6520 ft | 26 kts | 223° |
| 2026-04-22 01:47 | 39.64017 | -106.92022 | 6516 ft | 5 kts | 355° |
| 2026-04-22 01:47 | 39.64057 | -106.91980 | 6509 ft | 22 kts | 111° |
| 2026-04-22 01:47 | 39.63975 | -106.91915 | 6518 ft | 6 kts | 79° |
| 2026-04-22 01:48 | 39.63975 | -106.91903 | 6504 ft | 1 kts | 82° |
| 2026-04-22 01:48 | 39.63975 | -106.91904 | 6500 ft | 0 kts | 81° |
| 2026-04-22 01:51 | 39.63976 | -106.91907 | 6510 ft | 0 kts | 84° |
| 2026-04-22 01:51 | 39.63987 | -106.91903 | 6515 ft | 9 kts | 353° |
| 2026-04-22 01:51 | 39.64111 | -106.91910 | 6543 ft | 23 kts | 335° |
| 2026-04-22 01:51 | 39.64091 | -106.92255 | 6524 ft | 51 kts | 264° |
| 2026-04-22 01:52 | 39.64042 | -106.92720 | 6495 ft | 51 kts | 263° |
| 2026-04-22 01:52 | 39.64005 | -106.93064 | 6480 ft | 20 kts | 267° |
| 2026-04-22 01:52 | 39.64007 | -106.93134 | 6468 ft | 0 kts | 334° |
| 2026-04-22 01:52 | 39.64018 | -106.93140 | 6464 ft | 3 kts | 17° |
| 2026-04-22 01:53 | 39.64009 | -106.93048 | 6500 ft | 13 kts | 79° |
| 2026-04-22 01:53 | 39.64018 | -106.92967 | 6501 ft | 9 kts | 80° |
| 2026-04-22 01:53 | 39.64024 | -106.92846 | 6500 ft | 13 kts | 81° |
| 2026-04-22 01:53 | 39.64043 | -106.92696 | 6502 ft | 21 kts | 79° |
| 2026-04-22 01:54 | 39.64075 | -106.92432 | 6534 ft | 36 kts | 77° |
| 2026-04-22 01:54 | 39.64114 | -106.92099 | 6554 ft | 35 kts | 76° |
| 2026-04-22 01:54 | 39.64143 | -106.91825 | 6559 ft | 28 kts | 77° |
| 2026-04-22 01:54 | 39.64158 | -106.91589 | 6552 ft | 30 kts | 77° |
| 2026-04-22 01:55 | 39.64187 | -106.91426 | 6536 ft | 5 kts | 259° |
| 2026-04-22 01:55 | 39.64175 | -106.91511 | 6538 ft | 13 kts | 262° |
| 2026-04-22 01:55 | 39.64172 | -106.91551 | 6531 ft | 0 kts | 261° |
| 2026-04-22 01:55 | 39.64172 | -106.91552 | 6534 ft | 2 kts | 261° |
| 2026-04-22 01:56 | 39.64172 | -106.91551 | 6537 ft | 1 kts | 260° |
| 2026-04-22 01:56 | 39.64171 | -106.91556 | 6542 ft | 2 kts | 260° |
| 2026-04-22 01:56 | 39.64171 | -106.91564 | 6543 ft | 1 kts | 259° |
| 2026-04-22 01:56 | 39.64168 | -106.91580 | 6545 ft | 2 kts | 66° |
| 2026-04-22 01:57 | 39.64168 | -106.91575 | 6553 ft | 1 kts | 81° |
| 2026-04-22 01:57 | 39.64168 | -106.91561 | 6556 ft | 3 kts | 77° |
| 2026-04-22 01:57 | 39.64171 | -106.91548 | 6556 ft | 1 kts | 77° |
| 2026-04-22 01:57 | 39.64171 | -106.91543 | 6552 ft | 3 kts | 77° |
| 2026-04-22 01:58 | 39.64173 | -106.91513 | 6546 ft | 7 kts | 79° |
| 2026-04-22 01:58 | 39.64106 | -106.91496 | 6608 ft | 13 kts | 80° |
| 2026-04-22 01:58 | 39.64195 | -106.91404 | 6545 ft | 20 kts | 98° |
| 2026-04-22 01:58 | 39.64220 | -106.91119 | 6565 ft | 43 kts | 86° |
| 2026-04-22 01:59 | 39.64262 | -106.90727 | 6562 ft | 32 kts | 83° |
| 2026-04-22 01:59 | 39.64230 | -106.90435 | 6583 ft | 43 kts | 6° |
| 2026-04-22 01:59 | 39.64309 | -106.90347 | 6563 ft | 3 kts | 316° |
| 2026-04-22 01:59 | 39.64321 | -106.90374 | 6556 ft | 6 kts | 345° |
| 2026-04-22 02:00 | 39.64335 | -106.90373 | 6550 ft | 7 kts | 347° |
| 2026-04-22 02:00 | 39.64393 | -106.90396 | 6561 ft | 14 kts | 337° |
| 2026-04-22 02:00 | 39.64361 | -106.90780 | 6564 ft | 81 kts | 262° |
| 2026-04-22 02:00 | 39.64240 | -106.91706 | 6659 ft | 109 kts | 246° |
| 2026-04-22 02:01 | 39.63634 | -106.91833 | 7110 ft | 103 kts | 139° |
| 2026-04-22 02:01 | 39.63508 | -106.90883 | 7269 ft | 118 kts | 90° |
| 2026-04-22 02:01 | 39.63502 | -106.89836 | 7499 ft | 93 kts | 149° |
| 2026-04-22 02:01 | 39.62877 | -106.89873 | 7543 ft | 108 kts | 200° |
| 2026-04-22 02:02 | 39.62164 | -106.90290 | 7687 ft | 114 kts | 201° |
| 2026-04-22 02:02 | 39.61419 | -106.90660 | 7788 ft | 116 kts | 204° |
| 2026-04-22 02:02 | 39.60668 | -106.91003 | 8004 ft | 112 kts | 186° |
| 2026-04-22 02:02 | 39.60080 | -106.90416 | 8422 ft | 113 kts | 126° |
| 2026-04-22 02:03 | 39.59584 | -106.89708 | 8790 ft | 98 kts | 176° |
| 2026-04-22 02:03 | 39.58903 | -106.89909 | 8957 ft | 108 kts | 206° |
| 2026-04-22 02:03 | 39.58539 | -106.89261 | 9231 ft | 125 kts | 65° |
| 2026-04-22 02:03 | 39.59035 | -106.88231 | 9240 ft | 144 kts | 50° |
| 2026-04-22 02:04 | 39.60461 | -106.86117 | 8759 ft | 160 kts | 44° |
| 2026-04-22 02:04 | 39.61211 | -106.85076 | 8684 ft | 160 kts | 43° |
| 2026-04-22 02:04 | 39.61982 | -106.84046 | 8601 ft | 160 kts | 41° |
| 2026-04-22 02:05 | 39.62770 | -106.83032 | 8525 ft | 160 kts | 41° |
| 2026-04-22 02:05 | 39.63181 | -106.81733 | 8455 ft | 156 kts | 91° |
| 2026-04-22 02:05 | 39.62904 | -106.80494 | 8647 ft | 135 kts | 134° |
| 2026-04-22 02:05 | 39.62175 | -106.80423 | 8780 ft | 103 kts | 234° |
| 2026-04-22 02:06 | 39.62350 | -106.81167 | 8840 ft | 107 kts | 326° |
| 2026-04-22 02:06 | 39.63136 | -106.81446 | 8747 ft | 128 kts | 343° |
| 2026-04-22 02:06 | 39.63745 | -106.81557 | 8700 ft | 133 kts | 348° |
| 2026-04-22 02:06 | 39.64995 | -106.81570 | 8694 ft | 135 kts | 12° |
| 2026-04-22 02:07 | 39.65600 | -106.80827 | 8903 ft | 109 kts | 77° |
| 2026-04-22 02:07 | 39.65655 | -106.80182 | 8971 ft | 108 kts | 88° |
| 2026-04-22 02:07 | 39.65742 | -106.79233 | 9087 ft | 100 kts | 83° |
| 2026-04-22 02:07 | 39.65808 | -106.78326 | 9043 ft | 114 kts | 104° |
| 2026-04-22 02:08 | 39.65299 | -106.77675 | 8998 ft | 101 kts | 169° |
| 2026-04-22 02:08 | 39.64634 | -106.77365 | 9059 ft | 101 kts | 169° |
| 2026-04-22 02:08 | 39.64298 | -106.77632 | 8910 ft | 80 kts | 328° |
| 2026-04-22 02:08 | 39.64485 | -106.77160 | 8925 ft | 76 kts | 126° |
| 2026-04-22 02:09 | 39.64068 | -106.76545 | 8960 ft | 106 kts | 143° |
| 2026-04-22 02:09 | 39.63431 | -106.75911 | 9058 ft | 125 kts | 143° |
| 2026-04-22 02:09 | 39.62746 | -106.75183 | 9246 ft | 126 kts | 137° |
| 2026-04-22 02:09 | 39.62313 | -106.74621 | 9973 ft | 63 kts | 146° |
| 2026-04-22 02:10 | 39.61932 | -106.74182 | 10251 ft | 85 kts | 143° |
| 2026-04-22 02:10 | 39.61419 | -106.73605 | 10331 ft | 106 kts | 143° |
| 2026-04-22 02:10 | 39.60951 | -106.73071 | 10461 ft | 71 kts | 145° |
| 2026-04-22 02:10 | 39.60553 | -106.72671 | 10643 ft | 75 kts | 143° |
| 2026-04-22 02:11 | 39.60112 | -106.72243 | 10858 ft | 83 kts | 145° |
| 2026-04-22 02:11 | 39.59654 | -106.71721 | 11002 ft | 93 kts | 137° |
| 2026-04-22 02:11 | 39.59206 | -106.71068 | 11101 ft | 90 kts | 149° |
| 2026-04-22 02:11 | 39.58714 | -106.70662 | 11257 ft | 83 kts | 153° |
| 2026-04-22 02:12 | 39.58251 | -106.70214 | 11382 ft | 83 kts | 151° |
| 2026-04-22 02:12 | 39.57796 | -106.69760 | 11506 ft | 83 kts | 143° |
| 2026-04-22 02:12 | 39.57359 | -106.69266 | 11646 ft | 84 kts | 144° |
| 2026-04-22 02:12 | 39.56937 | -106.68770 | 11762 ft | 76 kts | 139° |
| 2026-04-22 02:13 | 39.56413 | -106.68319 | 11714 ft | 105 kts | 136° |
| 2026-04-22 02:13 | 39.55908 | -106.67802 | 11771 ft | 96 kts | 140° |
| 2026-04-22 02:13 | 39.55379 | -106.67201 | 11841 ft | 99 kts | 134° |
| 2026-04-22 02:13 | 39.54846 | -106.66656 | 11912 ft | 93 kts | 130° |
| 2026-04-22 02:14 | 39.54358 | -106.66180 | 12041 ft | 84 kts | 140° |
| 2026-04-22 02:14 | 39.53894 | -106.65705 | 12072 ft | 87 kts | 138° |
| 2026-04-22 02:14 | 39.53485 | -106.65206 | 12149 ft | 79 kts | 136° |
| 2026-04-22 02:14 | 39.53034 | -106.64729 | 12358 ft | 87 kts | 147° |
| 2026-04-22 02:15 | 39.52629 | -106.64295 | 12474 ft | 82 kts | 132° |
| 2026-04-22 02:15 | 39.52223 | -106.63853 | 12620 ft | 74 kts | 141° |
| 2026-04-22 02:15 | 39.51850 | -106.63427 | 12788 ft | 69 kts | 147° |
| 2026-04-22 02:15 | 39.51478 | -106.63002 | 12839 ft | 84 kts | 149° |
| 2026-04-22 02:16 | 39.50963 | -106.62482 | 12807 ft | 103 kts | 143° |
| 2026-04-22 02:16 | 39.50541 | -106.61870 | 12945 ft | 86 kts | 152° |
| 2026-04-22 02:16 | 39.50020 | -106.61448 | 13021 ft | 88 kts | 154° |
| 2026-04-22 02:16 | 39.49520 | -106.60986 | 13151 ft | 86 kts | 147° |
| 2026-04-22 02:17 | 39.49077 | -106.60507 | 13168 ft | 76 kts | 145° |
| 2026-04-22 02:17 | 39.48708 | -106.60018 | 13243 ft | 88 kts | 128° |
| 2026-04-22 02:17 | 39.48407 | -106.59237 | 13312 ft | 105 kts | 115° |
| 2026-04-22 02:17 | 39.47996 | -106.58753 | 13296 ft | 78 kts | 171° |
| 2026-04-22 02:18 | 39.47415 | -106.58528 | 13371 ft | 97 kts | 162° |
| 2026-04-22 02:18 | 39.46807 | -106.58365 | 13356 ft | 85 kts | 213° |
| 2026-04-22 02:18 | 39.46437 | -106.58377 | 13310 ft | 84 kts | 104° |
| 2026-04-22 02:18 | 39.46169 | -106.57539 | 12970 ft | 115 kts | 127° |
| 2026-04-22 02:19 | 39.45668 | -106.56790 | 12819 ft | 100 kts | 149° |
| 2026-04-22 02:19 | 39.45156 | -106.56242 | 13045 ft | 97 kts | 148° |
| 2026-04-22 02:19 | 39.44600 | -106.55661 | 13243 ft | 110 kts | 149° |
| 2026-04-22 02:19 | 39.43990 | -106.54994 | 13295 ft | 117 kts | 146° |
| 2026-04-22 02:20 | 39.43320 | -106.54357 | 13337 ft | 110 kts | 156° |
| 2026-04-22 02:20 | 39.42704 | -106.53800 | 12335 ft | 125 kts | 147° |
| 2026-04-22 02:20 | 39.42133 | -106.53336 | 12723 ft | 79 kts | 159° |
| 2026-04-22 02:20 | 39.41646 | -106.52815 | 12745 ft | 101 kts | 148° |
| 2026-04-22 02:21 | 39.41065 | -106.52210 | 12685 ft | 112 kts | 149° |
| 2026-04-22 02:21 | 39.40420 | -106.51598 | 12691 ft | 118 kts | 151° |
| 2026-04-22 02:21 | 39.39750 | -106.51008 | 12808 ft | 115 kts | 153° |
| 2026-04-22 02:21 | 39.39089 | -106.50450 | 12800 ft | 113 kts | 154° |
| 2026-04-22 02:22 | 39.38442 | -106.49904 | 12729 ft | 109 kts | 153° |
| 2026-04-22 02:22 | 39.37816 | -106.49370 | 12632 ft | 106 kts | 154° |
| 2026-04-22 02:22 | 39.37268 | -106.48844 | 12803 ft | 91 kts | 151° |
| 2026-04-22 02:22 | 39.36826 | -106.48332 | 12867 ft | 80 kts | 148° |
| 2026-04-22 02:23 | 39.36458 | -106.47860 | 13018 ft | 70 kts | 145° |
| 2026-04-22 02:23 | 39.36149 | -106.47430 | 13138 ft | 61 kts | 147° |
| 2026-04-22 02:23 | 39.35886 | -106.47042 | 13168 ft | 54 kts | 147° |
| 2026-04-22 02:23 | 39.35662 | -106.46686 | 13227 ft | 48 kts | 144° |
| 2026-04-22 02:24 | 39.35469 | -106.46359 | 13287 ft | 44 kts | 137° |
| 2026-04-22 02:24 | 39.35222 | -106.46024 | 13338 ft | 63 kts | 146° |
| 2026-04-22 02:24 | 39.34828 | -106.45577 | 13475 ft | 87 kts | 149° |
| 2026-04-22 02:24 | 39.34306 | -106.45024 | 13467 ft | 109 kts | 141° |
| 2026-04-22 02:25 | 39.34131 | -106.43969 | 13344 ft | 139 kts | 80° |
| 2026-04-22 02:25 | 39.34217 | -106.42720 | 13258 ft | 132 kts | 109° |
| 2026-04-22 02:25 | 39.33595 | -106.42140 | 13108 ft | 111 kts | 185° |
| 2026-04-22 02:25 | 39.33220 | -106.41441 | 13112 ft | 109 kts | 81° |
| 2026-04-22 02:26 | 39.33697 | -106.40619 | 12915 ft | 125 kts | 52° |
| 2026-04-22 02:26 | 39.33951 | -106.39558 | 12732 ft | 125 kts | 97° |
| 2026-04-22 02:26 | 39.33585 | -106.38586 | 12514 ft | 122 kts | 142° |
| 2026-04-22 02:26 | 39.32821 | -106.38239 | 12341 ft | 118 kts | 187° |
| 2026-04-22 02:27 | 39.32103 | -106.38693 | 12335 ft | 116 kts | 220° |
| 2026-04-22 02:27 | 39.31510 | -106.39362 | 12422 ft | 111 kts | 223° |
| 2026-04-22 02:27 | 39.30960 | -106.40051 | 12425 ft | 110 kts | 226° |
| 2026-04-22 02:27 | 39.30446 | -106.40772 | 12519 ft | 109 kts | 229° |
| 2026-04-22 02:28 | 39.29904 | -106.41487 | 12426 ft | 120 kts | 212° |
| 2026-04-22 02:28 | 39.29041 | -106.41278 | 12126 ft | 146 kts | 139° |
| 2026-04-22 02:28 | 39.28404 | -106.40219 | 11967 ft | 153 kts | 127° |
| 2026-04-22 02:28 | 39.27769 | -106.39115 | 11845 ft | 153 kts | 130° |
| 2026-04-22 02:29 | 39.27128 | -106.38020 | 11718 ft | 153 kts | 131° |
| 2026-04-22 02:29 | 39.26481 | -106.36938 | 11527 ft | 152 kts | 130° |
| 2026-04-22 02:29 | 39.26090 | -106.35726 | 11402 ft | 150 kts | 85° |
| 2026-04-22 02:29 | 39.26406 | -106.34468 | 11363 ft | 147 kts | 68° |
| 2026-04-22 02:30 | 39.26802 | -106.33222 | 11125 ft | 153 kts | 73° |
| 2026-04-22 02:30 | 39.26768 | -106.31983 | 11185 ft | 135 kts | 124° |
| 2026-04-22 02:30 | 39.25989 | -106.31422 | 11015 ft | 135 kts | 170° |
| 2026-04-22 02:30 | 39.25049 | -106.31250 | 10840 ft | 136 kts | 177° |
| 2026-04-22 02:31 | 39.24117 | -106.31194 | 10654 ft | 130 kts | 179° |
| 2026-04-22 02:31 | 39.23325 | -106.31127 | 10543 ft | 98 kts | 172° |
| 2026-04-22 02:31 | 39.22790 | -106.31034 | 10374 ft | 57 kts | 204° |
| 2026-04-22 02:31 | 39.22565 | -106.31271 | 10153 ft | 33 kts | 255° |
| 2026-04-22 02:32 | 39.22513 | -106.31427 | 10105 ft | 4 kts | 259° |
| 2026-04-22 02:32 | 39.22479 | -106.31378 | 10106 ft | 5 kts | 255° |
| 2026-04-22 02:32 | 39.22469 | -106.31481 | 10076 ft | 16 kts | 252° |
| 2026-04-22 02:32 | 39.22459 | -106.31603 | 9987 ft | 12 kts | 349° |
| 2026-04-22 02:33 | 39.22457 | -106.31684 | 9960 ft | 4 kts | 79° |
| 2026-04-22 02:33 | 39.22458 | -106.31671 | 9938 ft | 2 kts | 77° |
| 2026-04-22 02:33 | 39.22459 | -106.31669 | 9934 ft | 0 kts | 74° |